Time;durP1;ratioP1;P1;durP2;ratioP2;P2;SDS_P1;SDS_P2;PMS_P1;PMS_P2;Temp;Humidity;BMP_temperature;BMP_pressure;BME280_temperature;BME280_humidity;BME280_pressure;Samples;Min_cycle;Max_cycle;Signal;HPM_P1;HPM_P2
2022/08/10 00:00:28;;;;;;;4.30;3.90;;;16.30;69.50;;;;;;5077865;28;20265;-66
2022/08/10 00:02:56;;;;;;;8.53;3.80;;;16.20;69.80;;;;;;5076719;28;20288;-62
2022/08/10 00:05:23;;;;;;;6.00;3.93;;;16.20;70.50;;;;;;5075106;28;20179;-62
2022/08/10 00:07:48;;;;;;;4.07;3.67;;;16.20;70.70;;;;;;5080514;28;20416;-62
2022/08/10 00:10:16;;;;;;;4.70;3.73;;;16.10;71.10;;;;;;5074199;28;20506;-62
2022/08/10 00:12:43;;;;;;;5.20;3.97;;;16.10;72.30;;;;;;5082375;28;20206;-62
2022/08/10 00:15:11;;;;;;;5.70;3.57;;;16.10;72.70;;;;;;5077348;28;21081;-62
2022/08/10 00:17:37;;;;;;;3.80;3.50;;;16.00;73.20;;;;;;5075700;28;20427;-62
2022/08/10 00:20:04;;;;;;;4.60;4.20;;;16.00;74.00;;;;;;5076922;28;21034;-62
2022/08/10 00:22:29;;;;;;;4.70;3.67;;;16.00;75.10;;;;;;5075869;28;20230;-62
2022/08/10 00:24:56;;;;;;;11.80;4.10;;;16.00;75.40;;;;;;5074652;28;20475;-62
2022/08/10 00:27:23;;;;;;;5.17;4.27;;;15.90;75.30;;;;;;5075125;28;20174;-62
2022/08/10 00:29:49;;;;;;;6.80;3.80;;;15.90;75.50;;;;;;5076338;28;20883;-61
2022/08/10 00:32:15;;;;;;;5.23;4.10;;;15.90;76.30;;;;;;5085950;28;20468;-62
2022/08/10 00:34:40;;;;;;;10.50;4.30;;;15.80;77.10;;;;;;5078701;28;20166;-62
2022/08/10 00:37:06;;;;;;;4.03;3.63;;;15.80;77.90;;;;;;5079164;28;20186;-61
2022/08/10 00:39:31;;;;;;;4.40;4.00;;;15.80;79.10;;;;;;5077450;28;20557;-62
2022/08/10 00:41:57;;;;;;;3.90;3.60;;;15.70;80.00;;;;;;5083048;28;20178;-62
2022/08/10 00:44:23;;;;;;;3.90;3.60;;;15.70;80.70;;;;;;5078786;28;20178;-62
2022/08/10 00:46:48;;;;;;;6.80;3.97;;;15.70;81.30;;;;;;5084876;28;20170;-62
2022/08/10 00:49:14;;;;;;;3.90;3.60;;;15.70;81.90;;;;;;5080873;28;20608;-62
2022/08/10 00:51:41;;;;;;;6.80;3.63;;;15.60;81.90;;;;;;5081783;28;20198;-62
2022/08/10 00:54:08;;;;;;;4.70;3.40;;;15.60;81.60;;;;;;5075263;28;20262;-62
2022/08/10 00:56:34;;;;;;;4.03;3.60;;;15.60;81.70;;;;;;5082653;28;20491;-62
2022/08/10 00:58:59;;;;;;;3.83;3.53;;;15.60;81.60;;;;;;5079239;28;20932;-63
2022/08/10 01:01:25;;;;;;;8.07;3.80;;;15.60;81.40;;;;;;5080462;28;20493;-62
2022/08/10 01:03:51;;;;;;;7.90;4.30;;;15.50;81.30;;;;;;5077941;28;20694;-62
2022/08/10 01:06:25;;;;;;;4.17;3.77;;;15.50;81.60;;;;;;5076450;28;20908;-62
2022/08/10 01:09:01;;;;;;;4.00;3.70;;;15.50;82.10;;;;;;5079652;28;20182;-62
2022/08/10 01:12:02;;;;;;;5.17;4.53;;;15.50;82.70;;;;;;5079573;28;20467;-62
2022/08/10 01:14:35;;;;;;;3.93;3.63;;;15.50;82.80;;;;;;5078615;28;20515;-63
2022/08/10 01:17:16;;;;;;;4.00;3.70;;;15.50;83.10;;;;;;5079515;28;20514;-62
2022/08/10 01:20:09;;;;;;;4.90;4.10;;;15.40;83.50;;;;;;5076852;28;20443;-62
2022/08/10 01:23:10;;;;;;;5.00;3.70;;;15.40;83.70;;;;;;5084287;28;20428;-62
2022/08/10 01:25:59;;;;;;;6.50;3.67;;;15.40;84.80;;;;;;5055966;28;20977;-62
2022/08/10 01:28:27;;;;;;;8.20;4.23;;;15.40;85.40;;;;;;5079909;28;20438;-62
2022/08/10 01:30:57;;;;;;;6.00;4.03;;;15.30;85.50;;;;;;5080601;28;20510;-62
2022/08/10 01:33:34;;;;;;;5.80;4.37;;;15.30;86.10;;;;;;5077712;28;20472;-62
2022/08/10 01:36:11;;;;;;;5.90;4.63;;;15.30;85.80;;;;;;5075268;28;20436;-62
2022/08/10 01:38:42;;;;;;;4.50;4.10;;;15.30;86.00;;;;;;5080098;28;20424;-62
2022/08/10 01:41:13;;;;;;;4.23;3.77;;;15.30;86.30;;;;;;5083148;28;20456;-62
2022/08/10 01:43:42;;;;;;;5.60;3.93;;;15.20;86.50;;;;;;5076393;28;20445;-62
2022/08/10 01:46:10;;;;;;;4.97;4.07;;;15.30;86.30;;;;;;5082784;28;20428;-62
2022/08/10 01:48:42;;;;;;;4.20;3.80;;;15.20;86.00;;;;;;5084922;28;20921;-62
2022/08/10 01:51:16;;;;;;;4.50;4.00;;;15.20;86.10;;;;;;5085074;28;20484;-62
2022/08/10 01:53:50;;;;;;;4.50;4.10;;;15.20;86.20;;;;;;5084687;28;20458;-62
2022/08/10 01:56:18;;;;;;;7.47;3.87;;;15.20;86.00;;;;;;5082771;28;20481;-62
2022/08/10 01:58:47;;;;;;;3.87;3.57;;;15.20;85.30;;;;;;5074778;28;20506;-62
2022/08/10 02:01:17;;;;;;;9.13;4.00;;;15.20;85.10;;;;;;5088708;28;20527;-61
2022/08/10 02:03:48;;;;;;;4.37;3.97;;;15.30;85.60;;;;;;5084083;28;20531;-62
2022/08/10 02:06:14;;;;;;;5.17;3.77;;;15.30;84.60;;;;;;5082164;28;20448;-62
2022/08/10 02:08:42;;;;;;;3.90;3.60;;;15.30;83.80;;;;;;5084835;28;20788;-62
2022/08/10 02:11:10;;;;;;;4.70;3.67;;;15.30;83.70;;;;;;5088345;28;20467;-62
2022/08/10 02:13:37;;;;;;;4.93;4.33;;;15.30;82.40;;;;;;5091071;28;20514;-62
2022/08/10 02:16:05;;;;;;;5.00;3.80;;;15.30;82.30;;;;;;5087176;28;20912;-62
2022/08/10 02:18:32;;;;;;;3.83;3.53;;;15.40;82.30;;;;;;5089393;28;20484;-61
2022/08/10 02:21:01;;;;;;;8.23;4.40;;;15.40;81.50;;;;;;5087554;28;20485;-62
2022/08/10 02:23:30;;;;;;;5.40;4.47;;;15.40;80.90;;;;;;5085647;28;20456;-62
2022/08/10 02:25:59;;;;;;;4.70;4.03;;;15.40;80.50;;;;;;5078492;28;20522;-62
2022/08/10 02:28:28;;;;;;;5.30;3.47;;;15.40;81.00;;;;;;5087891;28;20451;-62
2022/08/10 02:30:56;;;;;;;5.07;4.07;;;15.40;81.10;;;;;;5083960;28;20897;-62
2022/08/10 02:33:23;;;;;;;6.23;4.03;;;15.40;81.00;;;;;;5090556;28;20454;-61
2022/08/10 02:35:50;;;;;;;4.00;3.60;;;15.40;80.80;;;;;;5073835;28;20431;-62
2022/08/10 02:38:20;;;;;;;4.03;3.63;;;15.40;81.20;;;;;;5081899;28;20446;-62
2022/08/10 02:40:51;;;;;;;4.47;4.07;;;15.30;81.70;;;;;;5088687;28;20857;-62
2022/08/10 02:43:53;;;;;;;5.33;4.53;;;15.30;81.50;;;;;;5074813;28;21219;-62
2022/08/10 02:46:32;;;;;;;4.77;3.70;;;15.30;81.70;;;;;;5077871;28;20803;-62
2022/08/10 02:49:03;;;;;;;6.20;4.20;;;15.30;82.00;;;;;;5087952;28;20931;-62
2022/08/10 02:51:43;;;;;;;4.50;4.00;;;15.30;82.10;;;;;;5089870;28;21088;-62
2022/08/10 02:54:16;;;;;;;5.03;4.10;;;15.30;82.00;;;;;;5078332;28;20489;-62
2022/08/10 02:57:06;;;;;;;11.17;4.10;;;15.30;82.20;;;;;;5085956;28;20906;-62
2022/08/10 02:59:38;;;;;;;4.90;3.90;;;15.30;82.30;;;;;;5081199;28;21015;-62
2022/08/10 03:02:06;;;;;;;4.63;4.10;;;15.30;82.50;;;;;;5071183;28;20503;-62
2022/08/10 03:04:40;;;;;;;4.20;3.80;;;15.30;82.20;;;;;;5067852;28;20405;-62
2022/08/10 03:07:10;;;;;;;4.10;3.80;;;15.30;82.60;;;;;;5086566;28;20463;-62
2022/08/10 03:09:39;;;;;;;5.53;3.80;;;15.20;82.90;;;;;;5080409;28;20919;-63
2022/08/10 03:12:07;;;;;;;6.43;4.10;;;15.20;83.00;;;;;;5077279;28;20433;-62
2022/08/10 03:14:34;;;;;;;3.70;3.40;;;15.20;83.70;;;;;;5086864;28;20465;-62
2022/08/10 03:17:01;;;;;;;7.30;4.40;;;15.20;83.90;;;;;;5084086;28;20922;-62
2022/08/10 03:19:28;;;;;;;4.57;4.17;;;15.20;84.20;;;;;;5088900;28;20528;-63
2022/08/10 03:21:55;;;;;;;4.27;3.80;;;15.20;84.70;;;;;;5086768;28;20444;-62
2022/08/10 03:24:24;;;;;;;4.43;4.07;;;15.20;84.40;;;;;;5086858;28;20424;-62
2022/08/10 03:26:52;;;;;;;4.17;3.77;;;15.20;84.20;;;;;;5071867;28;20492;-62
2022/08/10 03:29:20;;;;;;;5.10;4.30;;;15.10;84.50;;;;;;5089681;28;20439;-62
2022/08/10 03:31:46;;;;;;;4.37;3.97;;;15.10;85.00;;;;;;5086042;28;20963;-62
2022/08/10 03:34:14;;;;;;;8.30;4.73;;;15.10;85.60;;;;;;5088470;28;20992;-61
2022/08/10 03:36:40;;;;;;;4.80;4.33;;;15.10;86.10;;;;;;5088265;28;20423;-61
2022/08/10 03:39:06;;;;;;;4.50;4.10;;;15.10;85.80;;;;;;5076013;28;20427;-62
2022/08/10 03:41:47;;;;;;;7.17;4.20;;;15.00;85.90;;;;;;5087356;28;20436;-62
2022/08/10 03:44:19;;;;;;;5.97;4.73;;;15.00;87.00;;;;;;5085011;28;20312;-62
2022/08/10 03:46:47;;;;;;;5.10;4.60;;;15.00;86.90;;;;;;5087153;28;20436;-62
2022/08/10 03:49:13;;;;;;;5.17;4.17;;;15.00;87.80;;;;;;5074418;28;20413;-61
2022/08/10 03:51:39;;;;;;;4.70;4.30;;;15.00;88.20;;;;;;5083191;28;20464;-61
2022/08/10 03:54:05;;;;;;;6.83;3.93;;;15.00;87.80;;;;;;5081053;28;20485;-61
2022/08/10 03:56:32;;;;;;;6.07;4.57;;;15.10;88.40;;;;;;5083472;28;20404;-62
2022/08/10 03:58:57;;;;;;;5.00;3.90;;;15.10;88.30;;;;;;5069179;28;20404;-63
2022/08/10 04:01:23;;;;;;;5.80;4.67;;;15.10;87.50;;;;;;5076902;28;20531;-61
2022/08/10 04:03:49;;;;;;;6.87;4.37;;;15.10;86.70;;;;;;5085581;28;20709;-62
2022/08/10 04:06:15;;;;;;;4.40;4.00;;;15.20;86.30;;;;;;5068428;28;20187;-62
2022/08/10 04:08:42;;;;;;;5.03;3.60;;;15.10;85.90;;;;;;5075595;28;20186;-61
2022/08/10 04:11:11;;;;;;;3.80;3.47;;;15.20;86.10;;;;;;5088151;28;20870;-62
2022/08/10 04:13:37;;;;;;;6.10;5.03;;;15.20;86.10;;;;;;5084612;28;21006;-62
2022/08/10 04:16:04;;;;;;;10.20;4.80;;;15.20;86.00;;;;;;5085659;28;21008;-62
2022/08/10 04:18:30;;;;;;;4.90;4.50;;;15.20;86.10;;;;;;5079600;28;20425;-63
2022/08/10 04:21:03;;;;;;;4.13;3.73;;;15.20;85.40;;;;;;5091772;28;20427;-62
2022/08/10 04:23:32;;;;;;;6.30;4.77;;;15.30;86.00;;;;;;5085183;28;20456;-62
2022/08/10 04:25:59;;;;;;;9.13;4.20;;;15.30;85.70;;;;;;5084321;28;20431;-63
2022/08/10 04:28:25;;;;;;;7.23;4.63;;;15.30;85.80;;;;;;5082199;28;20427;-63
2022/08/10 04:30:53;;;;;;;6.57;5.00;;;15.30;85.10;;;;;;5091904;28;21095;-62
2022/08/10 04:33:22;;;;;;;5.50;5.00;;;15.40;84.90;;;;;;5090899;28;20523;-62
2022/08/10 04:35:49;;;;;;;6.10;4.70;;;15.40;84.10;;;;;;5086079;28;21082;-62
2022/08/10 04:38:16;;;;;;;7.03;4.40;;;15.40;84.00;;;;;;5089168;28;20515;-62
2022/08/10 04:40:43;;;;;;;5.67;4.50;;;15.40;83.80;;;;;;5086911;28;20428;-62
2022/08/10 04:43:10;;;;;;;4.70;4.10;;;15.40;83.40;;;;;;5081389;28;20450;-62
2022/08/10 04:45:35;;;;;;;4.73;3.90;;;15.50;83.60;;;;;;5074119;28;20400;-61
2022/08/10 04:48:01;;;;;;;5.10;3.87;;;15.40;83.40;;;;;;5074847;28;20430;-62
2022/08/10 04:50:27;;;;;;;4.53;4.00;;;15.50;83.30;;;;;;5090223;28;20194;-62
2022/08/10 04:52:52;;;;;;;4.93;4.50;;;15.50;83.70;;;;;;5089651;28;20205;-62
2022/08/10 04:55:18;;;;;;;4.80;3.93;;;15.60;83.70;;;;;;5088812;28;20184;-61
2022/08/10 04:57:44;;;;;;;5.37;3.90;;;15.60;83.00;;;;;;5087061;28;20651;-62
2022/08/10 05:00:10;;;;;;;7.20;4.40;;;15.70;83.10;;;;;;5087011;28;20169;-61
2022/08/10 05:02:36;;;;;;;5.80;4.20;;;15.70;82.30;;;;;;5088755;28;20240;-62
2022/08/10 05:05:01;;;;;;;4.03;3.63;;;15.80;81.50;;;;;;5091906;28;20905;-61
2022/08/10 05:07:27;;;;;;;6.30;4.30;;;15.90;80.20;;;;;;5090775;28;20588;-62
2022/08/10 05:09:53;;;;;;;7.70;4.00;;;15.90;80.20;;;;;;5082423;28;20691;-61
2022/08/10 05:12:18;;;;;;;5.43;3.50;;;16.00;78.70;;;;;;5087195;28;20200;-62
2022/08/10 05:14:44;;;;;;;5.20;3.87;;;16.10;77.40;;;;;;5088955;28;20260;-62
2022/08/10 05:17:10;;;;;;;4.83;4.20;;;16.20;76.50;;;;;;5073247;28;20185;-61
2022/08/10 05:19:36;;;;;;;7.67;4.20;;;16.30;75.40;;;;;;5085460;28;20177;-62
2022/08/10 05:22:03;;;;;;;7.10;3.70;;;16.40;74.30;;;;;;5086604;28;20512;-62
2022/08/10 05:24:29;;;;;;;6.73;4.43;;;16.50;73.50;;;;;;5086297;28;20792;-62
2022/08/10 05:26:55;;;;;;;4.63;3.80;;;16.70;73.00;;;;;;5088129;28;20423;-61
2022/08/10 05:29:20;;;;;;;5.90;4.13;;;16.80;71.40;;;;;;5079040;28;20431;-62
2022/08/10 05:31:46;;;;;;;5.30;3.70;;;16.90;69.80;;;;;;5089452;28;20209;-62
2022/08/10 05:34:12;;;;;;;4.47;3.80;;;17.00;68.70;;;;;;5077600;28;20203;-63
2022/08/10 05:36:38;;;;;;;6.57;3.50;;;17.10;68.00;;;;;;5090512;28;20806;-62
2022/08/10 05:39:04;;;;;;;5.60;3.23;;;17.20;66.90;;;;;;5088538;28;20553;-62
2022/08/10 05:41:31;;;;;;;7.03;3.80;;;17.30;66.20;;;;;;5083568;28;20427;-62
2022/08/10 05:43:57;;;;;;;4.60;4.00;;;17.40;65.60;;;;;;5089294;28;20200;-61
2022/08/10 05:46:22;;;;;;;5.67;3.70;;;17.50;65.20;;;;;;5091152;28;20489;-62
2022/08/10 05:48:48;;;;;;;5.83;3.30;;;17.50;64.50;;;;;;5084180;28;20480;-62
2022/08/10 05:51:15;;;;;;;6.50;3.70;;;17.60;64.00;;;;;;5088093;28;20710;-61
2022/08/10 05:53:40;;;;;;;7.67;3.40;;;17.70;63.60;;;;;;5081801;28;20194;-61
2022/08/10 05:56:07;;;;;;;3.63;3.33;;;17.80;63.10;;;;;;5090335;28;21017;-61
2022/08/10 05:58:35;;;;;;;5.00;3.57;;;17.80;62.70;;;;;;5085815;28;20178;-62
2022/08/10 06:01:04;;;;;;;8.20;3.90;;;17.90;62.20;;;;;;5090319;28;20476;-62
2022/08/10 06:03:35;;;;;;;7.10;3.33;;;18.00;61.60;;;;;;5077781;28;20453;-62
2022/08/10 06:06:05;;;;;;;7.40;3.80;;;18.10;61.20;;;;;;5079404;28;20409;-62
2022/08/10 06:08:32;;;;;;;4.70;3.67;;;18.20;60.90;;;;;;5070576;28;20528;-62
2022/08/10 06:11:03;;;;;;;7.30;3.67;;;18.20;60.60;;;;;;5084761;28;20964;-62
2022/08/10 06:16:18;;;;;;;7.23;4.03;;;18.30;60.00;;;;;;5081641;28;20962;-62
2022/08/10 06:18:44;;;;;;;3.90;3.33;;;18.40;59.80;;;;;;5088322;28;20520;-62
2022/08/10 06:21:10;;;;;;;8.30;4.00;;;18.40;59.30;;;;;;5071458;28;20531;-62
2022/08/10 06:23:38;;;;;;;6.87;3.50;;;18.50;59.40;;;;;;5071848;28;20186;-61
2022/08/10 06:26:06;;;;;;;5.40;3.20;;;18.60;59.20;;;;;;5089336;28;20669;-61
2022/08/10 06:28:36;;;;;;;4.33;3.53;;;18.60;58.80;;;;;;5088058;28;20435;-62
2022/08/10 06:31:04;;;;;;;3.50;3.20;;;18.70;58.60;;;;;;5069681;28;20521;-62
2022/08/10 06:33:32;;;;;;;5.37;4.13;;;18.80;58.50;;;;;;5078469;28;21140;-62
2022/08/10 06:35:59;;;;;;;3.70;3.23;;;18.90;58.10;;;;;;5076443;28;20929;-62
2022/08/10 06:38:29;;;;;;;4.93;3.50;;;19.00;57.80;;;;;;5071958;28;20891;-62
2022/08/10 06:40:59;;;;;;;4.47;3.70;;;19.10;57.30;;;;;;5076842;28;20810;-62
2022/08/10 06:43:27;;;;;;;3.43;2.77;;;19.10;57.20;;;;;;5088663;28;20805;-63
2022/08/10 06:46:02;;;;;;;5.33;3.10;;;19.20;57.10;;;;;;5087345;28;20839;-62
2022/08/10 06:48:32;;;;;;;5.00;3.00;;;19.30;56.40;;;;;;5087977;28;20697;-62
2022/08/10 06:51:07;;;;;;;3.60;2.90;;;19.30;56.40;;;;;;5081332;28;20455;-62
2022/08/10 06:53:47;;;;;;;5.33;3.83;;;19.40;56.40;;;;;;5079743;28;20448;-62
2022/08/10 06:56:18;;;;;;;3.50;3.20;;;19.40;56.40;;;;;;5088047;28;20928;-62
2022/08/10 06:58:57;;;;;;;5.37;3.50;;;19.50;56.20;;;;;;5071469;28;20432;-62
2022/08/10 07:01:27;;;;;;;3.83;2.90;;;19.60;56.00;;;;;;5082830;28;20443;-62
2022/08/10 07:04:07;;;;;;;9.53;3.70;;;19.70;55.60;;;;;;5079325;28;20451;-62
2022/08/10 07:06:35;;;;;;;4.03;3.50;;;19.70;55.40;;;;;;5070615;28;20432;-62
2022/08/10 07:09:02;;;;;;;3.53;2.90;;;19.80;55.20;;;;;;5088604;28;20407;-61
2022/08/10 07:11:29;;;;;;;6.70;2.93;;;19.90;55.00;;;;;;5085531;28;20554;-62
2022/08/10 07:13:57;;;;;;;4.90;3.00;;;20.00;54.80;;;;;;5083201;28;20425;-62
2022/08/10 07:16:27;;;;;;;3.30;3.00;;;20.10;54.50;;;;;;5076456;28;20496;-62
2022/08/10 07:18:55;;;;;;;3.40;3.10;;;20.20;54.50;;;;;;5084815;28;20784;-61
2022/08/10 07:21:23;;;;;;;3.33;2.90;;;20.20;54.30;;;;;;5086774;28;20439;-61
2022/08/10 07:23:50;;;;;;;4.10;3.00;;;20.30;54.10;;;;;;5072928;28;20456;-61
2022/08/10 07:26:18;;;;;;;3.50;3.10;;;20.40;54.10;;;;;;5087408;28;20403;-61
2022/08/10 07:28:44;;;;;;;3.90;2.87;;;20.40;54.20;;;;;;5089034;28;20765;-61
2022/08/10 07:31:14;;;;;;;9.40;2.87;;;20.50;53.90;;;;;;5075058;28;20463;-63
2022/08/10 07:33:41;;;;;;;2.50;2.30;;;20.60;53.80;;;;;;5074544;28;20439;-62
2022/08/10 07:36:09;;;;;;;4.10;2.93;;;20.60;53.70;;;;;;5086618;28;20431;-61
2022/08/10 07:38:37;;;;;;;5.60;2.80;;;20.70;53.40;;;;;;5080390;28;20427;-61
2022/08/10 07:41:06;;;;;;;4.63;2.80;;;20.80;53.30;;;;;;5079685;28;20513;-61
2022/08/10 07:43:36;;;;;;;5.80;3.00;;;20.90;53.20;;;;;;5077228;28;20498;-61
2022/08/10 07:46:10;;;;;;;4.23;2.27;;;20.90;53.00;;;;;;5086590;28;20414;-61
2022/08/10 07:48:42;;;;;;;7.27;2.70;;;21.00;53.00;;;;;;5086048;28;20431;-61
2022/08/10 07:51:09;;;;;;;3.03;2.80;;;21.10;53.10;;;;;;5071045;28;20464;-63
2022/08/10 07:53:42;;;;;;;4.83;2.77;;;21.20;52.70;;;;;;5080166;28;20590;-61
2022/08/10 07:56:09;;;;;;;3.23;2.80;;;21.30;52.50;;;;;;5082893;28;20439;-60
2022/08/10 07:58:40;;;;;;;4.93;3.20;;;21.50;52.10;;;;;;5077237;28;20459;-63
2022/08/10 08:01:05;;;;;;;4.30;2.37;;;21.60;51.70;;;;;;5082217;28;20436;-63
2022/08/10 08:03:32;;;;;;;6.50;2.80;;;21.70;51.00;;;;;;5078044;28;20845;-64
2022/08/10 08:06:00;;;;;;;4.83;3.00;;;21.80;50.50;;;;;;5071903;28;20174;-63
2022/08/10 08:08:27;;;;;;;2.93;2.50;;;21.90;49.90;;;;;;5080168;28;20427;-64
2022/08/10 08:10:56;;;;;;;10.80;2.73;;;22.10;49.20;;;;;;5074083;28;20458;-63
2022/08/10 08:13:22;;;;;;;4.70;2.73;;;22.10;49.60;;;;;;5076626;28;20467;-62
2022/08/10 08:15:51;;;;;;;3.70;2.70;;;22.20;49.60;;;;;;5077132;28;20483;-62
2022/08/10 08:18:20;;;;;;;5.10;2.40;;;22.30;49.40;;;;;;5077266;28;20490;-62
2022/08/10 08:20:46;;;;;;;3.40;2.60;;;22.30;49.40;;;;;;5080210;28;20454;-63
2022/08/10 08:23:15;;;;;;;4.17;2.77;;;22.50;49.20;;;;;;5077680;28;20471;-63
2022/08/10 08:25:42;;;;;;;7.03;2.63;;;22.60;48.80;;;;;;5074807;28;20429;-62
2022/08/10 08:28:10;;;;;;;5.07;3.03;;;22.70;48.30;;;;;;5080126;28;20438;-63
2022/08/10 08:30:38;;;;;;;8.23;2.67;;;22.70;47.90;;;;;;5083975;28;20463;-65
2022/08/10 08:33:05;;;;;;;2.80;2.27;;;22.80;47.70;;;;;;5070794;28;20976;-65
2022/08/10 08:35:32;;;;;;;5.10;2.77;;;22.80;47.50;;;;;;5076783;28;20786;-63
2022/08/10 08:38:00;;;;;;;3.33;2.70;;;22.90;47.30;;;;;;5078390;28;20427;-63
2022/08/10 08:40:28;;;;;;;4.00;2.37;;;22.90;47.60;;;;;;5079355;28;20442;-63
2022/08/10 08:43:13;;;;;;;4.90;2.30;;;23.00;46.50;;;;;;5077073;28;20826;-64
2022/08/10 08:45:45;;;;;;;6.53;2.47;;;23.00;46.50;;;;;;5075869;28;20435;-64
2022/08/10 08:48:10;;;;;;;5.07;2.53;;;23.10;46.70;;;;;;5081188;28;20508;-64
2022/08/10 08:50:51;;;;;;;4.80;2.83;;;23.20;46.20;;;;;;5071243;28;20539;-62
2022/08/10 08:53:57;;;;;;;3.53;2.03;;;23.20;45.80;;;;;;5068546;28;20197;-62
2022/08/10 08:56:53;;;;;;;6.50;2.37;;;23.30;45.80;;;;;;5073708;28;20459;-62
2022/08/10 08:59:30;;;;;;;4.20;2.37;;;23.40;45.00;;;;;;5080294;28;20444;-64
2022/08/10 09:02:17;;;;;;;5.13;1.93;;;23.40;44.30;;;;;;5074549;28;20457;-61
2022/08/10 09:05:13;;;;;;;11.73;2.43;;;23.40;44.30;;;;;;5076564;28;20432;-64
2022/08/10 09:08:02;;;;;;;4.23;2.60;;;23.50;44.00;;;;;;5074238;28;20436;-63
2022/08/10 09:10:48;;;;;;;6.33;2.20;;;23.50;43.80;;;;;;5078754;28;20456;-62
2022/08/10 09:13:38;;;;;;;3.20;2.40;;;23.60;44.20;;;;;;5078972;28;20483;-63
2022/08/10 09:16:24;;;;;;;5.33;2.40;;;23.70;43.50;;;;;;5074946;28;20932;-62
2022/08/10 09:19:16;;;;;;;3.00;2.47;;;23.70;43.40;;;;;;5072491;28;20421;-62
2022/08/10 09:21:59;;;;;;;6.23;2.20;;;23.80;44.10;;;;;;5077150;28;20481;-62
2022/08/10 09:24:40;;;;;;;2.37;2.17;;;23.90;43.60;;;;;;5071580;28;20424;-63
2022/08/10 09:27:19;;;;;;;4.03;2.10;;;24.00;42.70;;;;;;5075588;28;20431;-62
2022/08/10 09:29:54;;;;;;;3.90;2.03;;;24.10;42.90;;;;;;5083215;28;20996;-62
2022/08/10 09:32:38;;;;;;;4.87;2.20;;;24.20;43.20;;;;;;5073160;28;20490;-62
2022/08/10 09:35:26;;;;;;;2.77;1.90;;;24.30;42.50;;;;;;5074806;28;20417;-63
2022/08/10 09:37:57;;;;;;;8.83;1.97;;;24.30;42.10;;;;;;5071555;28;20459;-64
2022/08/10 09:40:34;;;;;;;7.53;2.60;;;24.40;41.70;;;;;;5078460;28;20428;-63
2022/08/10 09:43:17;;;;;;;3.00;2.20;;;24.40;40.80;;;;;;5082285;28;20835;-62
2022/08/10 09:46:05;;;;;;;8.33;2.57;;;24.50;41.20;;;;;;5088338;28;20540;-63
2022/08/10 09:48:42;;;;;;;2.30;2.10;;;24.50;41.30;;;;;;5075133;28;20470;-62
2022/08/10 09:51:38;;;;;;;4.17;1.87;;;24.70;41.90;;;;;;5073985;28;20469;-63
2022/08/10 09:54:22;;;;;;;2.10;2.00;;;24.80;40.60;;;;;;5077869;28;20547;-64
2022/08/10 09:57:16;;;;;;;4.60;2.00;;;24.80;40.60;;;;;;5078734;28;20419;-62
2022/08/10 10:00:02;;;;;;;3.43;1.93;;;24.90;40.80;;;;;;5080069;28;20428;-63
2022/08/10 10:02:51;;;;;;;2.83;2.37;;;24.90;40.80;;;;;;5073786;28;20457;-63
2022/08/10 10:05:45;;;;;;;3.97;2.23;;;25.00;41.50;;;;;;5079973;28;20564;-63
2022/08/10 10:08:22;;;;;;;2.90;2.07;;;25.10;41.40;;;;;;5063585;28;20458;-64
2022/08/10 10:11:22;;;;;;;7.50;2.00;;;25.10;41.50;;;;;;5065349;28;20574;-63
2022/08/10 10:14:14;;;;;;;2.17;2.03;;;25.20;41.00;;;;;;5061859;28;21106;-64
2022/08/10 10:17:11;;;;;;;2.30;2.10;;;25.20;40.50;;;;;;5074102;28;20420;-63
2022/08/10 10:20:10;;;;;;;3.80;2.40;;;25.30;40.10;;;;;;5068914;28;20869;-63
2022/08/10 10:23:14;;;;;;;4.70;1.90;;;25.30;40.50;;;;;;5072131;28;20800;-62
2022/08/10 10:25:53;;;;;;;3.63;1.90;;;25.40;40.90;;;;;;5030371;28;20950;-63
2022/08/10 10:28:48;;;;;;;6.47;2.10;;;25.50;39.70;;;;;;5030684;28;20981;-62
2022/08/10 10:31:37;;;;;;;3.63;2.00;;;25.50;40.30;;;;;;5061634;28;20947;-61
2022/08/10 10:34:11;;;;;;;6.43;2.70;;;25.60;40.00;;;;;;5067195;28;20456;-62
2022/08/10 10:36:40;;;;;;;4.10;2.27;;;25.60;39.50;;;;;;5066375;28;20429;-62
2022/08/10 10:39:07;;;;;;;2.33;2.10;;;25.70;40.40;;;;;;5070236;28;20518;-63
2022/08/10 10:41:41;;;;;;;4.30;2.07;;;25.80;41.30;;;;;;5068702;28;20451;-63
2022/08/10 10:44:21;;;;;;;2.70;2.07;;;25.90;40.10;;;;;;5069344;28;20466;-63
2022/08/10 10:47:08;;;;;;;2.80;1.97;;;26.00;40.10;;;;;;5073553;28;20435;-62
2022/08/10 10:50:01;;;;;;;3.00;2.10;;;26.10;40.80;;;;;;5066389;28;20439;-62
2022/08/10 10:53:00;;;;;;;9.80;2.13;;;26.30;40.00;;;;;;5061123;28;20478;-62
2022/08/10 10:55:48;;;;;;;3.80;2.07;;;26.40;41.00;;;;;;5064420;28;20427;-64
2022/08/10 10:58:35;;;;;;;5.50;2.17;;;26.50;40.40;;;;;;5070187;28;20449;-61
2022/08/10 11:01:30;;;;;;;2.67;1.83;;;26.60;39.00;;;;;;5064871;28;20440;-62
2022/08/10 11:04:23;;;;;;;4.63;2.20;;;26.70;38.50;;;;;;5033132;28;21189;-61
2022/08/10 11:06:52;;;;;;;2.07;1.63;;;26.70;37.50;;;;;;5076439;28;20965;-58
2022/08/10 11:09:28;;;;;;;5.23;1.90;;;26.70;37.20;;;;;;5073379;28;20435;-55
2022/08/10 11:11:57;;;;;;;2.67;1.60;;;26.80;38.00;;;;;;5069778;28;20532;-63
2022/08/10 11:14:47;;;;;;;3.57;1.60;;;26.90;37.90;;;;;;5063952;28;20440;-61
2022/08/10 11:17:30;;;;;;;3.57;1.60;;;27.00;36.10;;;;;;5066581;28;20769;-62
2022/08/10 11:20:16;;;;;;;2.00;1.80;;;27.10;36.30;;;;;;5069708;28;20424;-61
2022/08/10 11:22:50;;;;;;;1.83;1.40;;;27.10;36.00;;;;;;5065792;28;20190;-61
2022/08/10 11:25:31;;;;;;;2.80;1.60;;;27.20;35.70;;;;;;5073195;28;20428;-61
2022/08/10 11:28:11;;;;;;;2.90;2.10;;;27.20;35.50;;;;;;5068966;28;20180;-60
2022/08/10 11:30:45;;;;;;;3.03;1.60;;;27.40;36.70;;;;;;5073610;28;20459;-63
2022/08/10 11:33:22;;;;;;;2.73;1.77;;;27.50;37.70;;;;;;5069554;28;20660;-61
2022/08/10 11:35:53;;;;;;;2.43;2.10;;;27.70;38.00;;;;;;5071501;28;20176;-62
2022/08/10 11:38:44;;;;;;;2.90;1.80;;;27.80;37.00;;;;;;5070445;28;20222;-61
2022/08/10 11:41:32;;;;;;;2.70;2.00;;;27.80;35.90;;;;;;5070151;28;20187;-61
2022/08/10 11:44:24;;;;;;;4.60;1.77;;;27.90;36.60;;;;;;5064006;28;20209;-61
2022/08/10 11:47:01;;;;;;;2.97;1.70;;;28.00;36.90;;;;;;5068982;28;20258;-62
2022/08/10 11:49:45;;;;;;;5.73;1.90;;;28.20;36.70;;;;;;5073059;28;20254;-64
2022/08/10 11:52:35;;;;;;;3.47;2.03;;;28.30;36.90;;;;;;5071962;28;20280;-63
2022/08/10 11:55:19;;;;;;;2.30;1.73;;;28.40;36.10;;;;;;5073555;28;20174;-61
2022/08/10 11:57:46;;;;;;;3.10;1.50;;;28.40;35.80;;;;;;5067443;28;20180;-61
2022/08/10 12:00:13;;;;;;;7.63;2.07;;;28.50;36.20;;;;;;5069679;28;20189;-63
2022/08/10 12:02:44;;;;;;;8.00;1.93;;;28.60;34.90;;;;;;5066247;28;20220;-61
2022/08/10 12:05:28;;;;;;;1.60;1.50;;;28.70;35.40;;;;;;5074755;28;20587;-61
2022/08/10 12:07:57;;;;;;;4.67;1.67;;;28.80;35.80;;;;;;5066247;28;21021;-62
2022/08/10 12:10:24;;;;;;;2.53;1.53;;;28.90;35.20;;;;;;5073086;28;20300;-62
2022/08/10 12:13:11;;;;;;;2.50;1.90;;;29.00;33.70;;;;;;5071528;28;20239;-62
2022/08/10 12:15:54;;;;;;;1.90;1.80;;;29.10;32.80;;;;;;5073643;28;20198;-63
2022/08/10 12:18:44;;;;;;;2.75;1.58;;;29.20;34.00;;;;;;5071694;28;20270;-63
2022/08/10 12:21:29;;;;;;;3.42;1.95;;;29.30;34.60;;;;;;5069195;28;20291;-63
2022/08/10 12:24:08;;;;;;;5.57;1.92;;;29.50;34.80;;;;;;5067741;28;20808;-61
2022/08/10 12:27:09;;;;;;;2.25;1.88;;;29.60;33.80;;;;;;5068996;28;20228;-61
2022/08/10 12:29:43;;;;;;;2.35;1.88;;;29.60;33.50;;;;;;5063558;28;20185;-61
2022/08/10 12:32:19;;;;;;;1.88;1.67;;;29.70;32.50;;;;;;5068149;28;20207;-62
2022/08/10 12:34:54;;;;;;;6.95;1.52;;;29.70;32.50;;;;;;5073082;28;20181;-62
2022/08/10 12:37:30;;;;;;;8.07;1.90;;;29.70;31.60;;;;;;5078664;28;20174;-61
2022/08/10 12:40:07;;;;;;;1.60;1.45;;;29.80;31.70;;;;;;5075213;28;20181;-61
2022/08/10 12:42:41;;;;;;;3.35;1.38;;;29.80;32.80;;;;;;5074930;28;22193;-61
2022/08/10 12:45:20;;;;;;;2.35;1.50;;;29.80;30.80;;;;;;5076509;28;20189;-61
2022/08/10 12:47:57;;;;;;;1.50;1.40;;;29.90;31.10;;;;;;5075428;28;20204;-62
2022/08/10 12:50:48;;;;;;;1.50;1.30;;;30.00;32.20;;;;;;5070488;28;20197;-61
2022/08/10 12:53:48;;;;;;;5.45;1.70;;;30.10;32.80;;;;;;5065711;28;20621;-60
2022/08/10 12:56:24;;;;;;;3.65;1.83;;;30.30;32.10;;;;;;5075399;28;20163;-61
2022/08/10 12:58:50;;;;;;;2.92;1.50;;;30.40;32.20;;;;;;5076739;28;20562;-61
2022/08/10 13:01:18;;;;;;;3.05;1.60;;;30.60;32.30;;;;;;5069551;28;20538;-62
2022/08/10 13:03:50;;;;;;;2.90;1.58;;;30.70;31.60;;;;;;5071916;28;20571;-61
2022/08/10 13:06:16;;;;;;;5.88;1.67;;;30.80;32.10;;;;;;5076697;28;20284;-61
2022/08/10 13:11:30;;;;;;;1.58;1.48;;;30.80;31.10;;;;;;5072618;28;20294;-60
2022/08/10 13:14:05;;;;;;;4.30;1.75;;;30.90;31.00;;;;;;5079572;28;20190;-60
2022/08/10 13:16:33;;;;;;;3.00;1.50;;;31.00;31.20;;;;;;5076262;28;20203;-61
2022/08/10 13:19:02;;;;;;;2.55;1.30;;;31.10;31.30;;;;;;5072391;28;20786;-61
2022/08/10 13:21:35;;;;;;;5.82;1.50;;;31.20;30.20;;;;;;5070073;28;20220;-62